sensor_id;sensor_type;location;lat;lon;timestamp;temperature;humidity
15455;DHT22;21057;51.024;7.540;2023-01-25T00:00:26;2.70;99.90
15455;DHT22;21057;51.024;7.540;2023-01-25T00:02:53;2.70;99.90
15455;DHT22;21057;51.024;7.540;2023-01-25T00:05:19;2.70;99.90
15455;DHT22;21057;51.024;7.540;2023-01-25T00:07:46;2.70;99.90
15455;DHT22;21057;51.024;7.540;2023-01-25T00:10:13;2.70;99.90
15455;DHT22;21057;51.024;7.540;2023-01-25T00:12:41;2.70;99.90
15455;DHT22;21057;51.024;7.540;2023-01-25T00:15:09;2.90;99.90
15455;DHT22;21057;51.024;7.540;2023-01-25T00:17:36;2.70;99.90
15455;DHT22;21057;51.024;7.540;2023-01-25T00:20:05;2.70;99.90
15455;DHT22;21057;51.024;7.540;2023-01-25T00:22:32;2.80;99.90
15455;DHT22;21057;51.024;7.540;2023-01-25T00:24:58;2.80;99.90
15455;DHT22;21057;51.024;7.540;2023-01-25T00:27:25;2.90;99.90
15455;DHT22;21057;51.024;7.540;2023-01-25T00:30:12;2.90;99.90
15455;DHT22;21057;51.024;7.540;2023-01-25T00:32:53;2.80;99.90
15455;DHT22;21057;51.024;7.540;2023-01-25T00:35:23;2.60;99.90
15455;DHT22;21057;51.024;7.540;2023-01-25T00:37:55;2.60;99.90
15455;DHT22;21057;51.024;7.540;2023-01-25T00:40:22;2.70;99.90
15455;DHT22;21057;51.024;7.540;2023-01-25T00:42:48;2.70;99.90
15455;DHT22;21057;51.024;7.540;2023-01-25T00:45:17;2.60;99.90
15455;DHT22;21057;51.024;7.540;2023-01-25T00:47:44;2.60;99.90
15455;DHT22;21057;51.024;7.540;2023-01-25T00:50:10;2.70;99.90
15455;DHT22;21057;51.024;7.540;2023-01-25T00:52:38;2.70;99.90
15455;DHT22;21057;51.024;7.540;2023-01-25T00:55:06;2.70;99.90
15455;DHT22;21057;51.024;7.540;2023-01-25T00:57:33;2.60;99.90
15455;DHT22;21057;51.024;7.540;2023-01-25T01:00:00;2.60;99.90
15455;DHT22;21057;51.024;7.540;2023-01-25T01:02:29;2.60;99.90
15455;DHT22;21057;51.024;7.540;2023-01-25T01:04:56;2.70;99.90
15455;DHT22;21057;51.024;7.540;2023-01-25T01:07:23;2.60;99.90
15455;DHT22;21057;51.024;7.540;2023-01-25T01:09:50;2.60;99.90
15455;DHT22;21057;51.024;7.540;2023-01-25T01:12:16;2.50;99.90
15455;DHT22;21057;51.024;7.540;2023-01-25T01:14:43;2.60;99.90
15455;DHT22;21057;51.024;7.540;2023-01-25T01:17:10;2.60;99.90
15455;DHT22;21057;51.024;7.540;2023-01-25T01:23:00;2.60;99.90
15455;DHT22;21057;51.024;7.540;2023-01-25T01:25:27;2.50;99.90
15455;DHT22;21057;51.024;7.540;2023-01-25T01:27:54;2.70;99.90
15455;DHT22;21057;51.024;7.540;2023-01-25T01:30:21;2.70;99.90
15455;DHT22;21057;51.024;7.540;2023-01-25T01:32:50;2.70;99.90
15455;DHT22;21057;51.024;7.540;2023-01-25T01:35:18;2.60;99.90
15455;DHT22;21057;51.024;7.540;2023-01-25T01:37:45;2.60;99.90
15455;DHT22;21057;51.024;7.540;2023-01-25T01:40:15;2.40;99.90
15455;DHT22;21057;51.024;7.540;2023-01-25T01:42:57;2.40;99.90
15455;DHT22;21057;51.024;7.540;2023-01-25T01:45:50;2.30;99.90
15455;DHT22;21057;51.024;7.540;2023-01-25T01:48:20;2.40;99.90
15455;DHT22;21057;51.024;7.540;2023-01-25T01:51:20;2.30;99.90
15455;DHT22;21057;51.024;7.540;2023-01-25T01:53:53;2.30;99.90
15455;DHT22;21057;51.024;7.540;2023-01-25T01:56:28;2.40;99.90
15455;DHT22;21057;51.024;7.540;2023-01-25T01:58:57;2.40;99.90
15455;DHT22;21057;51.024;7.540;2023-01-25T02:01:24;2.50;99.90
15455;DHT22;21057;51.024;7.540;2023-01-25T02:03:51;2.50;99.90
15455;DHT22;21057;51.024;7.540;2023-01-25T02:06:26;2.60;99.90
15455;DHT22;21057;51.024;7.540;2023-01-25T02:08:54;2.50;99.90
15455;DHT22;21057;51.024;7.540;2023-01-25T02:11:24;2.50;99.90
15455;DHT22;21057;51.024;7.540;2023-01-25T02:13:52;2.40;99.90
15455;DHT22;21057;51.024;7.540;2023-01-25T02:16:25;2.50;99.90
15455;DHT22;21057;51.024;7.540;2023-01-25T02:18:54;2.50;99.90
15455;DHT22;21057;51.024;7.540;2023-01-25T02:21:23;2.50;99.90
15455;DHT22;21057;51.024;7.540;2023-01-25T02:23:53;2.50;99.90
15455;DHT22;21057;51.024;7.540;2023-01-25T02:26:23;2.60;99.90
15455;DHT22;21057;51.024;7.540;2023-01-25T02:28:54;2.50;99.90
15455;DHT22;21057;51.024;7.540;2023-01-25T02:31:21;2.50;99.90
15455;DHT22;21057;51.024;7.540;2023-01-25T02:33:48;2.40;99.90
15455;DHT22;21057;51.024;7.540;2023-01-25T02:36:20;2.40;99.90
15455;DHT22;21057;51.024;7.540;2023-01-25T02:42:12;2.40;99.90
15455;DHT22;21057;51.024;7.540;2023-01-25T02:44:48;2.50;99.90
15455;DHT22;21057;51.024;7.540;2023-01-25T02:47:15;2.60;99.90
15455;DHT22;21057;51.024;7.540;2023-01-25T02:49:42;2.60;99.90
15455;DHT22;21057;51.024;7.540;2023-01-25T02:52:09;2.50;99.90
15455;DHT22;21057;51.024;7.540;2023-01-25T02:54:36;2.50;99.90
15455;DHT22;21057;51.024;7.540;2023-01-25T02:57:03;2.50;99.90
15455;DHT22;21057;51.024;7.540;2023-01-25T02:59:32;2.50;99.90
15455;DHT22;21057;51.024;7.540;2023-01-25T03:01:59;2.40;99.90
15455;DHT22;21057;51.024;7.540;2023-01-25T03:04:26;2.50;99.90
15455;DHT22;21057;51.024;7.540;2023-01-25T03:07:00;2.50;99.90
15455;DHT22;21057;51.024;7.540;2023-01-25T03:09:26;2.50;99.90
15455;DHT22;21057;51.024;7.540;2023-01-25T03:11:53;2.60;99.90
15455;DHT22;21057;51.024;7.540;2023-01-25T03:14:20;2.50;99.90
15455;DHT22;21057;51.024;7.540;2023-01-25T03:16:48;2.40;99.90
15455;DHT22;21057;51.024;7.540;2023-01-25T03:19:15;2.50;99.90
15455;DHT22;21057;51.024;7.540;2023-01-25T03:21:42;2.40;99.90
15455;DHT22;21057;51.024;7.540;2023-01-25T03:24:09;2.40;99.90
15455;DHT22;21057;51.024;7.540;2023-01-25T03:26:36;2.40;99.90
15455;DHT22;21057;51.024;7.540;2023-01-25T03:29:23;2.30;99.90
15455;DHT22;21057;51.024;7.540;2023-01-25T03:31:52;2.00;99.90
15455;DHT22;21057;51.024;7.540;2023-01-25T03:34:19;2.10;99.90
15455;DHT22;21057;51.024;7.540;2023-01-25T03:36:46;2.30;99.90
15455;DHT22;21057;51.024;7.540;2023-01-25T03:39:14;2.20;99.90
15455;DHT22;21057;51.024;7.540;2023-01-25T03:41:47;2.30;99.90
15455;DHT22;21057;51.024;7.540;2023-01-25T03:44:13;2.30;99.90
15455;DHT22;21057;51.024;7.540;2023-01-25T03:46:40;2.30;99.90
15455;DHT22;21057;51.024;7.540;2023-01-25T03:49:10;2.20;99.90
15455;DHT22;21057;51.024;7.540;2023-01-25T03:51:37;2.20;99.90
15455;DHT22;21057;51.024;7.540;2023-01-25T03:54:15;2.20;99.90
15455;DHT22;21057;51.024;7.540;2023-01-25T03:56:42;2.20;99.90
15455;DHT22;21057;51.024;7.540;2023-01-25T03:59:10;2.10;99.90
15455;DHT22;21057;51.024;7.540;2023-01-25T04:01:37;2.20;99.90
15455;DHT22;21057;51.024;7.540;2023-01-25T04:04:28;2.20;99.90
15455;DHT22;21057;51.024;7.540;2023-01-25T04:06:54;2.20;99.90
15455;DHT22;21057;51.024;7.540;2023-01-25T04:09:21;2.20;99.90
15455;DHT22;21057;51.024;7.540;2023-01-25T04:11:50;2.20;99.90
15455;DHT22;21057;51.024;7.540;2023-01-25T04:14:17;2.30;99.90
15455;DHT22;21057;51.024;7.540;2023-01-25T04:16:44;2.50;99.90
15455;DHT22;21057;51.024;7.540;2023-01-25T04:19:10;2.40;99.90
15455;DHT22;21057;51.024;7.540;2023-01-25T04:21:48;2.50;99.90
15455;DHT22;21057;51.024;7.540;2023-01-25T04:24:14;2.50;99.90
15455;DHT22;21057;51.024;7.540;2023-01-25T04:26:59;2.60;99.90
15455;DHT22;21057;51.024;7.540;2023-01-25T04:29:26;2.50;99.90
15455;DHT22;21057;51.024;7.540;2023-01-25T04:31:59;2.30;99.90
15455;DHT22;21057;51.024;7.540;2023-01-25T04:34:26;2.30;99.90
15455;DHT22;21057;51.024;7.540;2023-01-25T04:36:54;2.30;99.90
15455;DHT22;21057;51.024;7.540;2023-01-25T04:39:21;2.30;99.90
15455;DHT22;21057;51.024;7.540;2023-01-25T04:41:48;2.40;99.90
15455;DHT22;21057;51.024;7.540;2023-01-25T04:44:16;2.20;99.90
15455;DHT22;21057;51.024;7.540;2023-01-25T04:46:43;2.30;99.90
15455;DHT22;21057;51.024;7.540;2023-01-25T04:49:10;2.30;99.90
15455;DHT22;21057;51.024;7.540;2023-01-25T04:51:37;2.30;99.90
15455;DHT22;21057;51.024;7.540;2023-01-25T04:54:06;2.30;99.90
15455;DHT22;21057;51.024;7.540;2023-01-25T04:56:38;2.40;99.90
15455;DHT22;21057;51.024;7.540;2023-01-25T04:59:05;2.40;99.90
15455;DHT22;21057;51.024;7.540;2023-01-25T05:01:42;2.30;99.90
15455;DHT22;21057;51.024;7.540;2023-01-25T05:04:09;2.40;99.90
15455;DHT22;21057;51.024;7.540;2023-01-25T05:06:44;2.30;99.90
15455;DHT22;21057;51.024;7.540;2023-01-25T05:09:12;2.30;99.90
15455;DHT22;21057;51.024;7.540;2023-01-25T05:11:39;2.20;99.90
15455;DHT22;21057;51.024;7.540;2023-01-25T05:14:17;2.40;99.90
15455;DHT22;21057;51.024;7.540;2023-01-25T05:16:44;2.20;99.90
15455;DHT22;21057;51.024;7.540;2023-01-25T05:19:11;2.20;99.90
15455;DHT22;21057;51.024;7.540;2023-01-25T05:21:38;2.20;99.90
15455;DHT22;21057;51.024;7.540;2023-01-25T05:24:24;2.20;99.90
15455;DHT22;21057;51.024;7.540;2023-01-25T05:26:51;2.20;99.90
15455;DHT22;21057;51.024;7.540;2023-01-25T05:29:30;2.30;99.90
15455;DHT22;21057;51.024;7.540;2023-01-25T05:32:00;2.30;99.90
15455;DHT22;21057;51.024;7.540;2023-01-25T05:34:30;2.30;99.90
15455;DHT22;21057;51.024;7.540;2023-01-25T05:36:57;2.10;99.90
15455;DHT22;21057;51.024;7.540;2023-01-25T05:39:36;2.30;99.90
15455;DHT22;21057;51.024;7.540;2023-01-25T05:42:08;2.20;99.90
15455;DHT22;21057;51.024;7.540;2023-01-25T05:44:37;2.30;99.90
15455;DHT22;21057;51.024;7.540;2023-01-25T05:47:03;2.10;99.90
15455;DHT22;21057;51.024;7.540;2023-01-25T05:49:31;2.10;99.90
15455;DHT22;21057;51.024;7.540;2023-01-25T05:51:58;2.20;99.90
15455;DHT22;21057;51.024;7.540;2023-01-25T05:54:31;2.20;99.90
15455;DHT22;21057;51.024;7.540;2023-01-25T05:56:59;2.10;99.90
15455;DHT22;21057;51.024;7.540;2023-01-25T05:59:33;2.20;99.90
15455;DHT22;21057;51.024;7.540;2023-01-25T06:01:59;2.00;99.90
15455;DHT22;21057;51.024;7.540;2023-01-25T06:04:26;2.00;99.90
15455;DHT22;21057;51.024;7.540;2023-01-25T06:06:53;1.90;99.90
15455;DHT22;21057;51.024;7.540;2023-01-25T06:09:20;1.90;99.90
15455;DHT22;21057;51.024;7.540;2023-01-25T06:11:48;2.00;99.90
15455;DHT22;21057;51.024;7.540;2023-01-25T06:14:16;2.00;99.90
15455;DHT22;21057;51.024;7.540;2023-01-25T06:16:44;2.30;99.90
15455;DHT22;21057;51.024;7.540;2023-01-25T06:19:12;2.30;99.90
15455;DHT22;21057;51.024;7.540;2023-01-25T06:21:49;2.20;99.90
15455;DHT22;21057;51.024;7.540;2023-01-25T06:24:16;2.10;99.90
15455;DHT22;21057;51.024;7.540;2023-01-25T06:26:43;2.10;99.90
15455;DHT22;21057;51.024;7.540;2023-01-25T06:29:10;2.10;99.90
15455;DHT22;21057;51.024;7.540;2023-01-25T06:31:54;2.10;99.90
15455;DHT22;21057;51.024;7.540;2023-01-25T06:34:21;2.10;99.90
15455;DHT22;21057;51.024;7.540;2023-01-25T06:36:49;2.20;99.90
15455;DHT22;21057;51.024;7.540;2023-01-25T06:39:21;2.30;99.90
15455;DHT22;21057;51.024;7.540;2023-01-25T06:41:48;2.10;99.90
15455;DHT22;21057;51.024;7.540;2023-01-25T06:44:14;2.00;99.90
15455;DHT22;21057;51.024;7.540;2023-01-25T06:46:41;2.00;99.90
15455;DHT22;21057;51.024;7.540;2023-01-25T06:49:10;2.00;99.90
15455;DHT22;21057;51.024;7.540;2023-01-25T06:51:37;2.00;99.90
15455;DHT22;21057;51.024;7.540;2023-01-25T06:54:05;2.00;99.90
15455;DHT22;21057;51.024;7.540;2023-01-25T06:56:32;2.10;99.90
15455;DHT22;21057;51.024;7.540;2023-01-25T06:58:59;2.20;99.90
15455;DHT22;21057;51.024;7.540;2023-01-25T07:01:26;2.30;99.90
15455;DHT22;21057;51.024;7.540;2023-01-25T07:03:56;2.20;99.90
15455;DHT22;21057;51.024;7.540;2023-01-25T07:06:29;2.10;99.90
15455;DHT22;21057;51.024;7.540;2023-01-25T07:09:01;2.10;99.90
15455;DHT22;21057;51.024;7.540;2023-01-25T07:11:34;2.20;99.90
15455;DHT22;21057;51.024;7.540;2023-01-25T07:14:01;2.10;99.90
15455;DHT22;21057;51.024;7.540;2023-01-25T07:16:31;2.10;99.90
15455;DHT22;21057;51.024;7.540;2023-01-25T07:19:01;1.90;99.90
15455;DHT22;21057;51.024;7.540;2023-01-25T07:21:29;1.80;99.90
15455;DHT22;21057;51.024;7.540;2023-01-25T07:23:59;2.10;99.90
15455;DHT22;21057;51.024;7.540;2023-01-25T07:26:27;2.00;99.90
15455;DHT22;21057;51.024;7.540;2023-01-25T07:28:58;1.80;99.90
15455;DHT22;21057;51.024;7.540;2023-01-25T07:31:26;1.70;99.90
15455;DHT22;21057;51.024;7.540;2023-01-25T07:34:00;1.80;99.90
15455;DHT22;21057;51.024;7.540;2023-01-25T07:36:29;2.00;99.90
15455;DHT22;21057;51.024;7.540;2023-01-25T07:39:03;1.90;99.90
15455;DHT22;21057;51.024;7.540;2023-01-25T07:41:35;1.70;99.90
15455;DHT22;21057;51.024;7.540;2023-01-25T07:44:09;1.90;99.90
15455;DHT22;21057;51.024;7.540;2023-01-25T07:46:36;1.90;99.90
15455;DHT22;21057;51.024;7.540;2023-01-25T07:49:02;1.80;99.90
15455;DHT22;21057;51.024;7.540;2023-01-25T07:51:31;1.70;99.90
15455;DHT22;21057;51.024;7.540;2023-01-25T07:53:59;1.70;99.90
15455;DHT22;21057;51.024;7.540;2023-01-25T07:56:35;1.70;99.90
15455;DHT22;21057;51.024;7.540;2023-01-25T07:59:02;1.90;99.90
15455;DHT22;21057;51.024;7.540;2023-01-25T08:01:32;2.00;99.90
15455;DHT22;21057;51.024;7.540;2023-01-25T08:04:01;2.00;99.90
15455;DHT22;21057;51.024;7.540;2023-01-25T08:06:32;2.00;99.90
15455;DHT22;21057;51.024;7.540;2023-01-25T08:09:02;2.00;99.90
15455;DHT22;21057;51.024;7.540;2023-01-25T08:11:30;1.80;99.90
15455;DHT22;21057;51.024;7.540;2023-01-25T08:13:57;1.90;99.90
15455;DHT22;21057;51.024;7.540;2023-01-25T08:16:26;2.00;99.90
15455;DHT22;21057;51.024;7.540;2023-01-25T08:18:55;2.00;99.90
15455;DHT22;21057;51.024;7.540;2023-01-25T08:21:46;2.00;99.90
15455;DHT22;21057;51.024;7.540;2023-01-25T08:24:13;2.10;99.90
15455;DHT22;21057;51.024;7.540;2023-01-25T08:26:39;2.20;99.90
15455;DHT22;21057;51.024;7.540;2023-01-25T08:29:09;2.10;99.90
15455;DHT22;21057;51.024;7.540;2023-01-25T08:31:40;2.00;99.90
15455;DHT22;21057;51.024;7.540;2023-01-25T08:34:08;2.10;99.90
15455;DHT22;21057;51.024;7.540;2023-01-25T08:36:49;2.00;99.90
15455;DHT22;21057;51.024;7.540;2023-01-25T08:39:16;2.10;99.90
15455;DHT22;21057;51.024;7.540;2023-01-25T08:41:43;2.20;99.90
15455;DHT22;21057;51.024;7.540;2023-01-25T08:44:10;2.20;99.90
15455;DHT22;21057;51.024;7.540;2023-01-25T08:46:44;2.00;99.90
15455;DHT22;21057;51.024;7.540;2023-01-25T08:49:11;2.20;99.90
15455;DHT22;21057;51.024;7.540;2023-01-25T08:51:39;2.20;99.90
15455;DHT22;21057;51.024;7.540;2023-01-25T08:54:10;2.20;99.90
15455;DHT22;21057;51.024;7.540;2023-01-25T08:56:38;2.20;99.90
15455;DHT22;21057;51.024;7.540;2023-01-25T08:59:05;2.30;99.90
15455;DHT22;21057;51.024;7.540;2023-01-25T09:01:32;2.40;99.90
15455;DHT22;21057;51.024;7.540;2023-01-25T09:03:59;2.60;99.90
15455;DHT22;21057;51.024;7.540;2023-01-25T09:06:26;2.50;99.90
15455;DHT22;21057;51.024;7.540;2023-01-25T09:08:58;2.60;99.90
15455;DHT22;21057;51.024;7.540;2023-01-25T09:11:26;2.60;99.90
15455;DHT22;21057;51.024;7.540;2023-01-25T09:13:53;2.50;99.90
15455;DHT22;21057;51.024;7.540;2023-01-25T09:16:23;2.40;99.90
15455;DHT22;21057;51.024;7.540;2023-01-25T09:18:54;2.60;99.90
15455;DHT22;21057;51.024;7.540;2023-01-25T09:21:21;2.70;99.90
15455;DHT22;21057;51.024;7.540;2023-01-25T09:23:51;2.60;99.90
15455;DHT22;21057;51.024;7.540;2023-01-25T09:26:18;2.70;99.90
15455;DHT22;21057;51.024;7.540;2023-01-25T09:28:47;2.70;99.90
15455;DHT22;21057;51.024;7.540;2023-01-25T09:31:15;2.60;99.90
15455;DHT22;21057;51.024;7.540;2023-01-25T09:33:42;2.60;99.90
15455;DHT22;21057;51.024;7.540;2023-01-25T09:36:10;2.50;99.90
15455;DHT22;21057;51.024;7.540;2023-01-25T09:38:37;2.50;99.90
15455;DHT22;21057;51.024;7.540;2023-01-25T09:41:17;2.60;99.90
15455;DHT22;21057;51.024;7.540;2023-01-25T09:44:03;2.70;99.90
15455;DHT22;21057;51.024;7.540;2023-01-25T09:46:39;2.70;99.90
15455;DHT22;21057;51.024;7.540;2023-01-25T09:49:20;2.70;99.90
15455;DHT22;21057;51.024;7.540;2023-01-25T09:51:58;2.70;99.90
15455;DHT22;21057;51.024;7.540;2023-01-25T09:54:30;2.40;99.90
15455;DHT22;21057;51.024;7.540;2023-01-25T09:56:59;2.50;99.90
15455;DHT22;21057;51.024;7.540;2023-01-25T09:59:28;2.50;99.90
15455;DHT22;21057;51.024;7.540;2023-01-25T10:01:59;2.60;99.90
15455;DHT22;21057;51.024;7.540;2023-01-25T10:04:40;2.70;99.90
15455;DHT22;21057;51.024;7.540;2023-01-25T10:07:18;2.70;99.90
15455;DHT22;21057;51.024;7.540;2023-01-25T10:09:50;2.70;99.90
15455;DHT22;21057;51.024;7.540;2023-01-25T10:12:20;2.70;99.90
15455;DHT22;21057;51.024;7.540;2023-01-25T10:14:50;2.70;99.90
15455;DHT22;21057;51.024;7.540;2023-01-25T10:17:25;2.40;99.90
15455;DHT22;21057;51.024;7.540;2023-01-25T10:20:14;2.40;99.90
15455;DHT22;21057;51.024;7.540;2023-01-25T10:22:50;2.50;99.90
15455;DHT22;21057;51.024;7.540;2023-01-25T10:25:23;2.40;99.90
15455;DHT22;21057;51.024;7.540;2023-01-25T10:30:48;2.70;99.90
15455;DHT22;21057;51.024;7.540;2023-01-25T10:33:19;2.80;99.90
15455;DHT22;21057;51.024;7.540;2023-01-25T10:35:48;2.80;99.90
15455;DHT22;21057;51.024;7.540;2023-01-25T10:38:19;2.90;99.90
15455;DHT22;21057;51.024;7.540;2023-01-25T10:40:51;3.00;99.90
15455;DHT22;21057;51.024;7.540;2023-01-25T10:43:20;3.10;99.90
15455;DHT22;21057;51.024;7.540;2023-01-25T10:45:49;3.00;99.90
15455;DHT22;21057;51.024;7.540;2023-01-25T10:48:19;3.10;99.90
15455;DHT22;21057;51.024;7.540;2023-01-25T10:50:49;3.10;99.90
15455;DHT22;21057;51.024;7.540;2023-01-25T10:53:30;3.00;99.90
15455;DHT22;21057;51.024;7.540;2023-01-25T10:56:04;2.90;99.90
15455;DHT22;21057;51.024;7.540;2023-01-25T10:58:34;2.80;99.90
15455;DHT22;21057;51.024;7.540;2023-01-25T11:01:03;2.90;99.90
15455;DHT22;21057;51.024;7.540;2023-01-25T11:03:36;3.10;99.90
15455;DHT22;21057;51.024;7.540;2023-01-25T11:06:05;3.20;99.90
15455;DHT22;21057;51.024;7.540;2023-01-25T11:08:34;2.80;99.90
15455;DHT22;21057;51.024;7.540;2023-01-25T11:11:24;3.10;99.90
15455;DHT22;21057;51.024;7.540;2023-01-25T11:13:52;3.00;99.90
15455;DHT22;21057;51.024;7.540;2023-01-25T11:16:30;3.00;99.90
15455;DHT22;21057;51.024;7.540;2023-01-25T11:18:58;3.20;99.90
15455;DHT22;21057;51.024;7.540;2023-01-25T11:21:28;3.00;99.90
15455;DHT22;21057;51.024;7.540;2023-01-25T11:24:15;3.00;99.90
15455;DHT22;21057;51.024;7.540;2023-01-25T11:26:43;2.90;99.90
15455;DHT22;21057;51.024;7.540;2023-01-25T11:29:12;2.90;99.90
15455;DHT22;21057;51.024;7.540;2023-01-25T11:31:43;3.00;99.90
15455;DHT22;21057;51.024;7.540;2023-01-25T11:34:13;3.00;99.90
15455;DHT22;21057;51.024;7.540;2023-01-25T11:36:50;2.90;99.90
15455;DHT22;21057;51.024;7.540;2023-01-25T11:39:28;2.90;99.90
15455;DHT22;21057;51.024;7.540;2023-01-25T11:42:11;3.00;99.90
15455;DHT22;21057;51.024;7.540;2023-01-25T11:45:01;3.10;99.90
15455;DHT22;21057;51.024;7.540;2023-01-25T11:47:50;2.70;99.90
15455;DHT22;21057;51.024;7.540;2023-01-25T11:50:23;2.30;99.90
15455;DHT22;21057;51.024;7.540;2023-01-25T11:53:00;2.40;99.90
15455;DHT22;21057;51.024;7.540;2023-01-25T11:55:31;2.50;99.90
15455;DHT22;21057;51.024;7.540;2023-01-25T11:58:18;2.40;99.90
15455;DHT22;21057;51.024;7.540;2023-01-25T12:00:58;2.50;99.90
15455;DHT22;21057;51.024;7.540;2023-01-25T12:03:56;2.40;99.90
15455;DHT22;21057;51.024;7.540;2023-01-25T12:06:33;2.40;99.90
15455;DHT22;21057;51.024;7.540;2023-01-25T12:09:21;2.40;99.90
15455;DHT22;21057;51.024;7.540;2023-01-25T12:12:08;2.70;99.90
15455;DHT22;21057;51.024;7.540;2023-01-25T12:14:46;2.80;99.90
15455;DHT22;21057;51.024;7.540;2023-01-25T12:17:27;2.70;99.90
15455;DHT22;21057;51.024;7.540;2023-01-25T12:20:20;2.60;99.90
15455;DHT22;21057;51.024;7.540;2023-01-25T12:23:05;2.70;99.90
15455;DHT22;21057;51.024;7.540;2023-01-25T12:25:43;2.60;99.90
15455;DHT22;21057;51.024;7.540;2023-01-25T12:28:17;2.60;99.90
15455;DHT22;21057;51.024;7.540;2023-01-25T12:30:51;2.60;99.90
15455;DHT22;21057;51.024;7.540;2023-01-25T12:33:24;2.70;99.90
15455;DHT22;21057;51.024;7.540;2023-01-25T12:35:58;2.80;99.90
15455;DHT22;21057;51.024;7.540;2023-01-25T12:38:32;2.40;99.90
15455;DHT22;21057;51.024;7.540;2023-01-25T12:41:03;2.40;99.90
15455;DHT22;21057;51.024;7.540;2023-01-25T12:43:38;2.40;99.90
15455;DHT22;21057;51.024;7.540;2023-01-25T12:46:13;2.40;99.90
15455;DHT22;21057;51.024;7.540;2023-01-25T12:48:46;2.70;99.90
15455;DHT22;21057;51.024;7.540;2023-01-25T12:51:17;2.70;99.90
15455;DHT22;21057;51.024;7.540;2023-01-25T12:53:48;2.50;99.90
15455;DHT22;21057;51.024;7.540;2023-01-25T12:56:27;2.70;99.90
15455;DHT22;21057;51.024;7.540;2023-01-25T12:58:59;2.70;99.90
15455;DHT22;21057;51.024;7.540;2023-01-25T13:01:34;2.80;99.90
15455;DHT22;21057;51.024;7.540;2023-01-25T13:04:18;2.70;99.90
15455;DHT22;21057;51.024;7.540;2023-01-25T13:06:51;2.60;99.90
15455;DHT22;21057;51.024;7.540;2023-01-25T13:09:27;2.60;99.90
15455;DHT22;21057;51.024;7.540;2023-01-25T13:11:58;2.70;99.90
15455;DHT22;21057;51.024;7.540;2023-01-25T13:14:30;2.80;99.90
15455;DHT22;21057;51.024;7.540;2023-01-25T13:17:22;2.70;99.90
15455;DHT22;21057;51.024;7.540;2023-01-25T13:19:51;2.60;99.90
15455;DHT22;21057;51.024;7.540;2023-01-25T13:22:53;2.70;99.90
15455;DHT22;21057;51.024;7.540;2023-01-25T13:25:23;2.70;99.90
15455;DHT22;21057;51.024;7.540;2023-01-25T13:27:52;2.50;99.90
15455;DHT22;21057;51.024;7.540;2023-01-25T13:30:50;2.70;99.90
15455;DHT22;21057;51.024;7.540;2023-01-25T13:33:31;2.70;99.90
15455;DHT22;21057;51.024;7.540;2023-01-25T13:36:41;2.80;99.90
15455;DHT22;21057;51.024;7.540;2023-01-25T13:39:41;2.70;99.90
15455;DHT22;21057;51.024;7.540;2023-01-25T13:42:19;2.70;99.90
15455;DHT22;21057;51.024;7.540;2023-01-25T13:44:49;2.40;99.90
15455;DHT22;21057;51.024;7.540;2023-01-25T13:47:20;2.50;99.90
15455;DHT22;21057;51.024;7.540;2023-01-25T13:49:53;2.40;99.90
15455;DHT22;21057;51.024;7.540;2023-01-25T13:52:22;2.40;99.90
15455;DHT22;21057;51.024;7.540;2023-01-25T13:54:54;2.70;99.90
15455;DHT22;21057;51.024;7.540;2023-01-25T13:57:23;2.60;99.90
15455;DHT22;21057;51.024;7.540;2023-01-25T14:00:01;2.60;99.90
15455;DHT22;21057;51.024;7.540;2023-01-25T14:02:30;2.60;99.90
15455;DHT22;21057;51.024;7.540;2023-01-25T14:04:57;2.60;99.90
15455;DHT22;21057;51.024;7.540;2023-01-25T14:07:30;2.50;99.90
15455;DHT22;21057;51.024;7.540;2023-01-25T14:10:01;2.70;99.90
15455;DHT22;21057;51.024;7.540;2023-01-25T14:12:33;2.70;99.90
15455;DHT22;21057;51.024;7.540;2023-01-25T14:15:21;2.60;99.90
15455;DHT22;21057;51.024;7.540;2023-01-25T14:20:43;2.70;99.90
15455;DHT22;21057;51.024;7.540;2023-01-25T14:23:26;2.60;99.90
15455;DHT22;21057;51.024;7.540;2023-01-25T14:25:55;2.50;99.90
15455;DHT22;21057;51.024;7.540;2023-01-25T14:28:24;2.60;99.90
15455;DHT22;21057;51.024;7.540;2023-01-25T14:30:52;2.70;99.90
15455;DHT22;21057;51.024;7.540;2023-01-25T14:33:23;2.50;99.90
15455;DHT22;21057;51.024;7.540;2023-01-25T14:35:52;2.50;99.90
15455;DHT22;21057;51.024;7.540;2023-01-25T14:38:22;2.50;99.90
15455;DHT22;21057;51.024;7.540;2023-01-25T14:40:52;2.40;99.90
15455;DHT22;21057;51.024;7.540;2023-01-25T14:43:22;2.40;99.90
15455;DHT22;21057;51.024;7.540;2023-01-25T14:45:50;2.50;99.90
15455;DHT22;21057;51.024;7.540;2023-01-25T14:48:39;2.40;99.90
15455;DHT22;21057;51.024;7.540;2023-01-25T14:51:13;2.40;99.90
15455;DHT22;21057;51.024;7.540;2023-01-25T14:53:43;2.40;99.90
15455;DHT22;21057;51.024;7.540;2023-01-25T14:56:27;2.30;99.90
15455;DHT22;21057;51.024;7.540;2023-01-25T14:58:55;2.10;99.90
15455;DHT22;21057;51.024;7.540;2023-01-25T15:01:28;2.20;99.90
15455;DHT22;21057;51.024;7.540;2023-01-25T15:03:56;2.40;99.90
15455;DHT22;21057;51.024;7.540;2023-01-25T15:06:24;2.30;99.90
15455;DHT22;21057;51.024;7.540;2023-01-25T15:08:51;2.30;99.90
15455;DHT22;21057;51.024;7.540;2023-01-25T15:11:28;2.10;99.90
15455;DHT22;21057;51.024;7.540;2023-01-25T15:14:10;2.10;99.90
15455;DHT22;21057;51.024;7.540;2023-01-25T15:16:39;2.10;99.90
15455;DHT22;21057;51.024;7.540;2023-01-25T15:19:23;2.20;99.90
15455;DHT22;21057;51.024;7.540;2023-01-25T15:21:53;2.20;99.90
15455;DHT22;21057;51.024;7.540;2023-01-25T15:24:20;2.30;99.90
15455;DHT22;21057;51.024;7.540;2023-01-25T15:26:49;2.10;99.90
15455;DHT22;21057;51.024;7.540;2023-01-25T15:29:17;2.20;99.90
15455;DHT22;21057;51.024;7.540;2023-01-25T15:31:46;2.20;99.90
15455;DHT22;21057;51.024;7.540;2023-01-25T15:34:15;2.10;99.90
15455;DHT22;21057;51.024;7.540;2023-01-25T15:36:41;2.00;99.90
15455;DHT22;21057;51.024;7.540;2023-01-25T15:39:12;1.80;99.90
15455;DHT22;21057;51.024;7.540;2023-01-25T15:41:40;1.80;99.90
15455;DHT22;21057;51.024;7.540;2023-01-25T15:44:07;1.90;99.90
15455;DHT22;21057;51.024;7.540;2023-01-25T15:46:35;1.80;99.90
15455;DHT22;21057;51.024;7.540;2023-01-25T15:49:04;1.70;99.90
15455;DHT22;21057;51.024;7.540;2023-01-25T15:51:32;1.70;99.90
15455;DHT22;21057;51.024;7.540;2023-01-25T15:53:59;1.90;99.90
15455;DHT22;21057;51.024;7.540;2023-01-25T15:56:29;1.80;99.90
15455;DHT22;21057;51.024;7.540;2023-01-25T15:58:58;1.80;99.90
15455;DHT22;21057;51.024;7.540;2023-01-25T16:01:27;1.90;99.90
15455;DHT22;21057;51.024;7.540;2023-01-25T16:03:55;2.00;99.90
15455;DHT22;21057;51.024;7.540;2023-01-25T16:06:34;1.90;99.90
15455;DHT22;21057;51.024;7.540;2023-01-25T16:09:11;2.00;99.90
15455;DHT22;21057;51.024;7.540;2023-01-25T16:11:40;2.00;99.90
15455;DHT22;21057;51.024;7.540;2023-01-25T16:14:07;2.00;99.90
15455;DHT22;21057;51.024;7.540;2023-01-25T16:16:37;1.80;99.90
15455;DHT22;21057;51.024;7.540;2023-01-25T16:19:04;1.70;99.90
15455;DHT22;21057;51.024;7.540;2023-01-25T16:21:31;1.70;99.90
15455;DHT22;21057;51.024;7.540;2023-01-25T16:23:58;1.80;99.90